Aidablu — IBWX — position and weather

sailwx.info

Track history (hours):
 
Tides and Currents Weather Stations Pressure Air Temp Water Temp Dewpoint Dewpoint Depression Visibility Wind Speed Wind Dir Waves Ship Positions

Aidablu

Last reported at 2016-Jul-28 03:06 UTC. Time now 2016-Jul-28 16:30 UTC.
Position N 41°45' E 011°50'.

Length 252 m; draft 7.3 m.

Type: Ship. MMSI: 247282500.

Date/timePositionNaut miles runAvg speedWind from/ knotsBaromVisibWave heightAir tempDewpointWater temp
2016-Jul-28 03:06N 41°45' E 011°50'2414.2
2016-Jul-28 01:23N 41°27' E 012°12'1314.4
2016-Jul-28 00:28N 41°18' E 012°24'88 9.9
2016-Jul-27 15:31N 40°50' E 014°16'0 0.0
2016-Jul-27 12:15N 40°50' E 014°16'0 0.0
2016-Jul-27 11:29N 40°50' E 014°16'57 5.5
2016-Jul-27 01:10N 39°56' E 013°57'1514.3
2016-Jul-27 00:08N 39°41' E 013°53'814.3
2016-Jul-26 23:33N 39°33' E 013°50'4714.1
2016-Jul-26 20:13N 38°47' E 013°37'913.9
2016-Jul-26 19:33N 38°38' E 013°33'1313.4
2016-Jul-26 18:33N 38°25' E 013°30'1313.4
2016-Jul-26 17:33N 38°12' E 013°27'6 5.7
2016-Jul-26 16:31N 38°08' E 013°22'0 0.0
2016-Jul-26 15:33N 38°08' E 013°22'0 0.0
2016-Jul-26 14:33N 38°08' E 013°22'0 0.0
2016-Jul-26 13:32N 38°08' E 013°22'0 0.0
2016-Jul-26 12:32N 38°08' E 013°22'0 0.0
2016-Jul-26 11:32N 38°08' E 013°22'0 0.0
2016-Jul-26 10:31N 38°08' E 013°22'0 0.0
2016-Jul-26 09:31N 38°08' E 013°22'0 0.0
2016-Jul-26 08:33N 38°08' E 013°22'0 0.0
2016-Jul-26 07:33N 38°08' E 013°22'2 2.1
2016-Jul-26 06:34N 38°09' E 013°24'1313.0
2016-Jul-26 05:33N 38°21' E 013°18'1513.7
2016-Jul-26 04:29N 38°32' E 013°05'428 8.6
2016-Jul-24 02:32N 39°25' E 003°59'1414.3
2016-Jul-24 01:33N 39°19' E 003°43'1413.9
2016-Jul-24 00:33N 39°13' E 003°26'1414.2
2016-Jul-23 23:33N 39°13' E 003°08'1313.6
2016-Jul-23 22:33N 39°17' E 002°51'1313.0
2016-Jul-23 21:33N 39°27' E 002°40'7 6.4
2016-Jul-23 20:32N 39°33' E 002°38'0 0.0
2016-Jul-23 19:32N 39°33' E 002°38'0 0.0
2016-Jul-23 18:32N 39°33' E 002°38'0 0.0
2016-Jul-23 17:31N 39°33' E 002°38'0 0.0
2016-Jul-23 16:31N 39°33' E 002°38'0 0.0
2016-Jul-23 15:30N 39°33' E 002°38'0 0.0
2016-Jul-23 14:33N 39°33' E 002°38'0 0.0
2016-Jul-23 13:32N 39°33' E 002°38'0 0.0
2016-Jul-23 12:32N 39°33' E 002°38'0 0.0
2016-Jul-23 11:32N 39°33' E 002°38'0 0.0
2016-Jul-23 10:31N 39°33' E 002°38'0 0.0
2016-Jul-23 09:31N 39°33' E 002°38'0 0.0
2016-Jul-23 08:33N 39°33' E 002°38'0 0.0
2016-Jul-23 07:33N 39°33' E 002°38'0 0.0
2016-Jul-23 06:32N 39°33' E 002°38'0 0.0
2016-Jul-23 04:32N 39°33' E 002°38'0 0.0
2016-Jul-23 03:31N 39°33' E 002°38'0 0.1
2016-Jul-23 02:33N 39°33' E 002°38'9 8.7
2016-Jul-23 01:33N 39°26' E 002°32'1412.7
2016-Jul-23 00:28N 39°33' E 002°16'1112.1
2016-Jul-22 23:32N 39°44' E 002°14'1212.7
2016-Jul-22 22:34N 39°56' E 002°13'1312.9
2016-Jul-22 21:33N 40°09' E 002°13'1312.7
2016-Jul-22 20:33N 40°22' E 002°13'1312.7
2016-Jul-22 19:33N 40°35' E 002°12'1312.6
2016-Jul-22 18:33N 40°47' E 002°12'1312.6
2016-Jul-22 17:33N 41°00' E 002°11'1312.7
2016-Jul-22 16:33N 41°13' E 002°10'9 6.8
2016-Jul-22 15:18N 41°21' E 002°11'0 0.0
2016-Jul-22 14:12N 41°21' E 002°11'0 0.0
2016-Jul-22 12:11N 41°21' E 002°11'3 0.4
2016-Jul-22 04:29N 41°18' E 002°11'7 7.9
2016-Jul-22 03:33N 41°17' E 002°21'7 6.6
2016-Jul-22 02:33N 41°17' E 002°30'7 7.0
2016-Jul-22 01:33N 41°17' E 002°39'1312.6
2016-Jul-22 00:33N 41°17' E 002°56'1414.2
2016-Jul-21 23:33N 41°17' E 003°15'1414.0
2016-Jul-21 22:33N 41°17' E 003°33'1313.4
2016-Jul-21 21:33N 41°17' E 003°51'4112.9
2016-Jul-21 18:24N 41°17' E 004°45'1412.6
2016-Jul-21 17:17N 41°18' E 005°04'3512.8
2016-Jul-21 14:33N 41°18' E 005°50'4412.7
2016-Jul-21 11:03N 41°18' E 006°49'156 4.2
2016-Jul-19 21:33N 42°32' E 009°55'1414.4
2016-Jul-19 20:33N 42°46' E 009°56'1414.2
2016-Jul-19 19:33N 42°60' E 009°59'1414.4
2016-Jul-19 18:33N 43°14' E 010°03'1414.3
2016-Jul-19 17:33N 43°28' E 010°09'8 7.5
2016-Jul-19 16:27N 43°33' E 010°18'0 0.0
2016-Jul-19 15:32N 43°33' E 010°18'0 0.0
2016-Jul-19 14:32N 43°33' E 010°18'0 0.0
2016-Jul-19 13:31N 43°33' E 010°18'0 0.0
2016-Jul-19 12:28N 43°33' E 010°18'0 0.0
2016-Jul-19 11:28N 43°33' E 010°18'0 0.0
2016-Jul-19 10:33N 43°33' E 010°18'0 0.0
2016-Jul-19 09:33N 43°33' E 010°18'0 0.0
2016-Jul-19 08:32N 43°33' E 010°18'0 0.0
2016-Jul-19 07:32N 43°33' E 010°18'5 1.8
2016-Jul-19 04:33N 43°29' E 010°14'1413.7
2016-Jul-19 03:33N 43°15' E 010°09'1413.7
2016-Jul-19 02:33N 43°02' E 010°05'8 8.0
2016-Jul-19 01:33N 42°54' E 010°03'2311.2
2016-Jul-18 23:33N 42°34' E 010°18'1513.7
2016-Jul-18 22:28N 42°25' E 010°34'1313.8
2016-Jul-18 21:33N 42°16' E 010°46'1713.0
2016-Jul-18 20:16N 42°08' E 011°06'  
Track history (hours):
 
Tides and Currents Weather Stations Pressure Air Temp Water Temp Dewpoint Dewpoint Depression Visibility Wind Speed Wind Dir Waves Ship Positions

Aidablu

Last reported at 2016-Jul-28 03:06 UTC. Time now 2016-Jul-28 16:30 UTC.
Position N 41°45' E 011°50'.

Length 252 m; draft 7.3 m.

Type: Ship. MMSI: 247282500.

Date/timePositionNaut miles runAvg speedWind from/ knotsBaromVisibWave heightAir tempDewpointWater temp
2016-Jul-28 03:06N 41°45' E 011°50'2414.2
2016-Jul-28 01:23N 41°27' E 012°12'1314.4
2016-Jul-28 00:28N 41°18' E 012°24'88 9.9
2016-Jul-27 15:31N 40°50' E 014°16'0 0.0
2016-Jul-27 12:15N 40°50' E 014°16'0 0.0
2016-Jul-27 11:29N 40°50' E 014°16'57 5.5
2016-Jul-27 01:10N 39°56' E 013°57'1514.3
2016-Jul-27 00:08N 39°41' E 013°53'814.3
2016-Jul-26 23:33N 39°33' E 013°50'4714.1
2016-Jul-26 20:13N 38°47' E 013°37'913.9
2016-Jul-26 19:33N 38°38' E 013°33'1313.4
2016-Jul-26 18:33N 38°25' E 013°30'1313.4
2016-Jul-26 17:33N 38°12' E 013°27'6 5.7
2016-Jul-26 16:31N 38°08' E 013°22'0 0.0
2016-Jul-26 15:33N 38°08' E 013°22'0 0.0
2016-Jul-26 14:33N 38°08' E 013°22'0 0.0
2016-Jul-26 13:32N 38°08' E 013°22'0 0.0
2016-Jul-26 12:32N 38°08' E 013°22'0 0.0
2016-Jul-26 11:32N 38°08' E 013°22'0 0.0
2016-Jul-26 10:31N 38°08' E 013°22'0 0.0
2016-Jul-26 09:31N 38°08' E 013°22'0 0.0
2016-Jul-26 08:33N 38°08' E 013°22'0 0.0
2016-Jul-26 07:33N 38°08' E 013°22'2 2.1
2016-Jul-26 06:34N 38°09' E 013°24'1313.0
2016-Jul-26 05:33N 38°21' E 013°18'1513.7
2016-Jul-26 04:29N 38°32' E 013°05'428 8.6
2016-Jul-24 02:32N 39°25' E 003°59'1414.3
2016-Jul-24 01:33N 39°19' E 003°43'1413.9
2016-Jul-24 00:33N 39°13' E 003°26'1414.2
2016-Jul-23 23:33N 39°13' E 003°08'1313.6
2016-Jul-23 22:33N 39°17' E 002°51'1313.0
2016-Jul-23 21:33N 39°27' E 002°40'7 6.4
2016-Jul-23 20:32N 39°33' E 002°38'0 0.0
2016-Jul-23 19:32N 39°33' E 002°38'0 0.0
2016-Jul-23 18:32N 39°33' E 002°38'0 0.0
2016-Jul-23 17:31N 39°33' E 002°38'0 0.0
2016-Jul-23 16:31N 39°33' E 002°38'0 0.0
2016-Jul-23 15:30N 39°33' E 002°38'0 0.0
2016-Jul-23 14:33N 39°33' E 002°38'0 0.0
2016-Jul-23 13:32N 39°33' E 002°38'0 0.0
2016-Jul-23 12:32N 39°33' E 002°38'0 0.0
2016-Jul-23 11:32N 39°33' E 002°38'0 0.0
2016-Jul-23 10:31N 39°33' E 002°38'0 0.0
2016-Jul-23 09:31N 39°33' E 002°38'0 0.0
2016-Jul-23 08:33N 39°33' E 002°38'0 0.0
2016-Jul-23 07:33N 39°33' E 002°38'0 0.0
2016-Jul-23 06:32N 39°33' E 002°38'0 0.0
2016-Jul-23 04:32N 39°33' E 002°38'0 0.0
2016-Jul-23 03:31N 39°33' E 002°38'0 0.1
2016-Jul-23 02:33N 39°33' E 002°38'9 8.7
2016-Jul-23 01:33N 39°26' E 002°32'1412.7
2016-Jul-23 00:28N 39°33' E 002°16'1112.1
2016-Jul-22 23:32N 39°44' E 002°14'1212.7
2016-Jul-22 22:34N 39°56' E 002°13'1312.9
2016-Jul-22 21:33N 40°09' E 002°13'1312.7
2016-Jul-22 20:33N 40°22' E 002°13'1312.7
2016-Jul-22 19:33N 40°35' E 002°12'1312.6
2016-Jul-22 18:33N 40°47' E 002°12'1312.6
2016-Jul-22 17:33N 41°00' E 002°11'1312.7
2016-Jul-22 16:33N 41°13' E 002°10'9 6.8
2016-Jul-22 15:18N 41°21' E 002°11'0 0.0
2016-Jul-22 14:12N 41°21' E 002°11'0 0.0
2016-Jul-22 12:11N 41°21' E 002°11'3 0.4
2016-Jul-22 04:29N 41°18' E 002°11'7 7.9
2016-Jul-22 03:33N 41°17' E 002°21'7 6.6
2016-Jul-22 02:33N 41°17' E 002°30'7 7.0
2016-Jul-22 01:33N 41°17' E 002°39'1312.6
2016-Jul-22 00:33N 41°17' E 002°56'1414.2
2016-Jul-21 23:33N 41°17' E 003°15'1414.0
2016-Jul-21 22:33N 41°17' E 003°33'1313.4
2016-Jul-21 21:33N 41°17' E 003°51'4112.9
2016-Jul-21 18:24N 41°17' E 004°45'1412.6
2016-Jul-21 17:17N 41°18' E 005°04'3512.8
2016-Jul-21 14:33N 41°18' E 005°50'4412.7
2016-Jul-21 11:03N 41°18' E 006°49'156 4.2
2016-Jul-19 21:33N 42°32' E 009°55'1414.4
2016-Jul-19 20:33N 42°46' E 009°56'1414.2
2016-Jul-19 19:33N 42°60' E 009°59'1414.4
2016-Jul-19 18:33N 43°14' E 010°03'1414.3
2016-Jul-19 17:33N 43°28' E 010°09'8 7.5
2016-Jul-19 16:27N 43°33' E 010°18'0 0.0
2016-Jul-19 15:32N 43°33' E 010°18'0 0.0
2016-Jul-19 14:32N 43°33' E 010°18'0 0.0
2016-Jul-19 13:31N 43°33' E 010°18'0 0.0
2016-Jul-19 12:28N 43°33' E 010°18'0 0.0
2016-Jul-19 11:28N 43°33' E 010°18'0 0.0
2016-Jul-19 10:33N 43°33' E 010°18'0 0.0
2016-Jul-19 09:33N 43°33' E 010°18'0 0.0
2016-Jul-19 08:32N 43°33' E 010°18'0 0.0
2016-Jul-19 07:32N 43°33' E 010°18'5 1.8
2016-Jul-19 04:33N 43°29' E 010°14'1413.7
2016-Jul-19 03:33N 43°15' E 010°09'1413.7
2016-Jul-19 02:33N 43°02' E 010°05'8 8.0
2016-Jul-19 01:33N 42°54' E 010°03'2311.2
2016-Jul-18 23:33N 42°34' E 010°18'1513.7
2016-Jul-18 22:28N 42°25' E 010°34'1313.8
2016-Jul-18 21:33N 42°16' E 010°46'1713.0
2016-Jul-18 20:16N 42°08' E 011°06'  

Dump ship's entire track history